Station: Mount Lofty  

  Atmospheric Gas Attenuation - ITU Rec 676-11   ----------------- dB/100km -----------------
Date Time Temp RH % AH g/m3 Dew Point Wind Direction Speed kph Gust kph Barometer mB Rainfall Since 9am 24GHz 47GHz 76GHz 122GHz 134GHz 241GHz
06/05 02:10 9.2 97 8.66 8.7 6 9 1013.1 0 19.9 27.4 42.4 111.5 105.3 362.0
06/05 02:00 9.2 97 8.66 8.7 6 9 1013.1 0 19.9 27.4 42.4 111.5 105.3 362.0
06/05 01:50 9.2 97 8.66 8.7 6 7 1013.1 0 19.9 27.4 42.4 111.5 105.3 362.0
06/05 01:40 9.3 97 8.72 8.8 6 9 1013.1 0 20.1 27.4 42.6 112.0 106.0 364.5
06/05 01:30 9.3 98 8.81 9 6 9 1013.1 0 20.3 27.6 43.0 113.0 107.3 368.9
06/05 01:20 9.3 98 8.81 9 4 4 1013.1 0 20.3 27.6 43.0 113.0 107.3 368.9
06/05 01:10 9.2 98 8.75 8.9 4 6 1013.1 0 20.1 27.5 42.8 112.5 106.6 366.4
06/05 01:00 9.2 98 8.75 8.9 4 7 1013.1 0 20.1 27.5 42.8 112.5 106.6 366.4
06/05 00:50 9.3 98 8.81 9 6 7 1013.1 0 20.3 27.6 43.0 113.0 107.3 368.9
06/05 00:40 9.2 98 8.75 8.9 6 7 1013.1 0 20.1 27.5 42.8 112.5 106.6 366.4
06/05 00:30 9.2 97 8.66 8.7 6 15 1013.1 0 19.9 27.4 42.4 111.5 105.3 362.0
06/05 00:20 9.2 97 8.66 8.7 6 7 1013.1 0 19.9 27.4 42.4 111.5 105.3 362.0
06/05 00:10 9.2 97 8.66 8.7 9 9 1013.1 0 19.9 27.4 42.4 111.5 105.3 362.0
06/05 00:00 9.3 97 8.72 8.8 4 7 1013.1 0 20.1 27.4 42.6 112.0 106.0 364.5
05/05 23:50 9.2 96 8.58 8.6 4 6 1013.1 0 19.8 27.2 42.1 110.5 104.2 358.0
05/05 23:40 9.1 96 8.52 8.5 6 7 1013.1 0 19.6 27.2 41.9 110.0 103.5 355.6
05/05 23:30 9 96 8.47 8.4 4 7 1013.1 0 19.5 27.1 41.7 109.6 102.9 353.6
05/05 23:20 9.1 95 8.43 8.3 4 4 1013.1 0 19.5 27.0 41.5 109.0 102.2 351.1
05/05 23:10 9.2 93 8.31 8.2 6 7 1013.1 0 19.2 26.8 40.9 107.5 100.4 344.8
05/05 23:00 9.4 92 8.32 8.2 6 9 1013.1 0 19.2 26.7 40.9 107.3 100.3 344.4
05/05 22:50 9.4 91 8.23 8 4 6 1013.1 0 19.0 26.6 40.5 106.3 99.0 340.0
05/05 22:40 9.3 92 8.27 8 6 6 1013.1 0 19.1 26.7 40.7 106.9 99.7 342.4
05/05 22:30 9.3 92 8.27 8.1 4 6 1013.1 0 19.1 26.7 40.7 106.9 99.7 342.4
05/05 22:20 9.3 91 8.18 7.9 4 6 1013.1 0 18.9 26.5 40.3 105.9 98.5 338.1
05/05 22:10 9.3 91 8.18 7.9 4 6 1013.1 0 18.9 26.5 40.3 105.9 98.5 338.1
05/05 22:00 9.5 91 8.29 8.1 2 6 1013.1 0 19.1 26.7 40.7 106.8 99.7 342.5
05/05 21:50 9.5 91 8.29 8.1 2 4 1013.1 0 19.1 26.7 40.7 106.8 99.7 342.5
05/05 21:40 9.6 90 8.25 8 6 7 1013.1 0 19.0 26.6 40.5 106.3 99.0 340.1
05/05 21:30 9.5 89 8.1 7.8 4 9 1013.1 0 18.7 26.3 39.9 104.7 97.1 333.3
05/05 21:20 9.5 87 7.92 7.4 2 4 1013.1 0 18.3 26.0 39.2 102.7 94.6 324.7
05/05 21:10 9.6 85 7.79 7.3 6 6 1013.1 0 18.0 25.8 38.6 101.1 92.7 318.1
05/05 21:00 9.6 87 7.97 7.5 4 7 1013.1 0 18.4 26.1 39.3 103.1 95.2 326.7
05/05 20:50 9.6 90 8.25 8 4 6 1013.1 0 19.0 26.6 40.5 106.3 99.0 340.1
05/05 20:40 9.6 88 8.06 7.8 2 4 1013.1 0 18.6 26.2 39.7 104.1 96.4 331.0
05/05 20:30 9.6 89 8.16 7.9 4 9 1013.1 0 18.8 26.4 40.1 105.2 97.8 335.8
05/05 20:20 9.7 88 8.11 7.8 4 4 1013.1 0 18.7 26.3 39.9 104.6 97.0 333.0
05/05 20:10 9.6 88 8.06 7.8 4 7 1013.1 0 18.6 26.2 39.7 104.1 96.4 331.0
05/05 20:00 9.6 90 8.25 8 6 9 1013.1 0 19.0 26.6 40.5 106.3 99.0 340.1
05/05 19:50 9.6 93 8.52 8.5 6 7 1013.1 0 19.6 27.0 41.6 109.3 102.8 353.3
05/05 19:40 9.5 93 8.47 8.5 6 6 1013.1 0 19.5 27.0 41.5 108.9 102.2 351.3
05/05 19:30 9.5 94 8.56 8.6 4 6 1013.1 0 19.7 27.1 41.9 109.9 103.5 355.7
05/05 19:20 9.5 93 8.47 8.5 4 6 1013.1 0 19.5 27.0 41.5 108.9 102.2 351.3
05/05 19:10 9.4 93 8.41 8.4 2 2 1013.1 0 19.4 26.9 41.3 108.3 101.5 348.8
05/05 19:00 9.5 94 8.56 8.6 2 4 1013.1 0 19.7 27.1 41.9 109.9 103.5 355.7
05/05 18:50 9.5 93 8.47 8.5 0 2 1013.1 0 19.5 27.0 41.5 108.9 102.2 351.3
05/05 18:40 9.4 93 8.41 8.4 4 6 1013.1 0 19.4 26.9 41.3 108.3 101.5 348.8
05/05 18:30 9.4 94 8.5 8.5 2 6 1013.1 0 19.6 27.0 41.6 109.3 102.8 353.2
05/05 18:20 9.4 93 8.41 8.3 2 2 1013.1 0 19.4 26.9 41.3 108.3 101.5 348.8
05/05 18:10 9.5 92 8.38 8.2 4 4 1013.1 0 19.3 26.8 41.1 107.9 101.0 346.9
05/05 18:00 9.5 91 8.29 8.1 4 6 1013.1 0 19.1 26.7 40.7 106.8 99.7 342.5
05/05 17:50 9.7 90 8.3 8.1 4 4 1013.1 0 19.1 26.6 40.6 106.7 99.6 342.1
05/05 17:40 9.9 88 8.22 8 4 4 1013.1 0 19.0 26.4 40.2 105.5 98.2 337.4
05/05 17:30 9.9 87 8.13 7.8 0 4 1013.1 0 18.8 26.3 39.8 104.5 97.0 333.1
05/05 17:20 9.9 85 7.94 7.6 2 2 1013.1 0 18.4 25.9 39.0 102.4 94.4 324.0
05/05 17:10 10.2 86 8.19 7.9 0 0 1013.1 0 18.9 26.3 39.9 104.8 97.4 334.7
05/05 17:00 10.4 84 8.1 7.8 0 0 1013.1 0 18.7 26.1 39.5 103.5 96.0 329.5
05/05 16:50 10.5 83 8.05 7.7 0 0 1013.1 0 18.6 26.0 39.2 102.8 95.2 326.7
05/05 16:40 10.5 82 7.95 7.5 2 2 1013.1 0 18.4 25.8 38.8 101.7 93.8 322.0
05/05 16:30 10.5 79 7.66 7 2 4 1013.1 0 17.7 25.3 37.6 98.6 89.9 308.4
05/05 16:20 10.6 80 7.81 7.4 2 4 1013.1 0 18.0 25.5 38.2 100.1 91.8 315.0
05/05 16:10 10.6 82 8.01 7.6 2 4 1013.1 0 18.5 25.9 39.0 102.3 94.5 324.4
05/05 16:00 10.6 81 7.91 7.5 4 7 1013.1 0 18.3 25.7 38.6 101.2 93.1 319.7
05/05 15:50 11 83 8.31 8.2 4 4 1013.1 0 19.1 26.2 40.0 105.0 98.1 336.9
05/05 15:40 11 80 8.01 7.8 4 6 1013.1 0 18.5 25.7 38.8 101.7 94.0 322.7
05/05 15:30 11.8 79 8.32 8.3 7 15 1013.1 0 19.1 26.0 39.7 104.1 97.2 334.0
05/05 15:20 12.1 82 8.79 9.1 6 7 1013.1 0 20.1 26.7 41.4 108.8 103.2 354.9
05/05 15:10 11.3 83 8.47 8.5 4 9 1013.1 0 19.4 26.4 40.5 106.4 99.8 343.2
05/05 15:00 10.9 81 8.06 7.8 6 9 1013.1 0 18.6 25.9 39.0 102.4 94.8 325.5
05/05 14:50 11.7 79 8.26 8.3 7 9 1013.1 0 19.0 25.9 39.5 103.5 96.5 331.6
05/05 14:40 11.6 85 8.84 9.1 6 7 1013.1 0 20.2 26.9 41.9 110.1 104.5 359.6
05/05 14:30 11.3 83 8.47 8.5 6 11 1013.1 0 19.4 26.4 40.5 106.4 99.8 343.2
05/05 14:20 11.3 79 8.06 7.9 6 7 1013.1 0 18.6 25.7 38.8 101.9 94.3 323.9
05/05 14:10 11.4 78 8.01 7.7 6 6 1013.1 0 18.4 25.6 38.6 101.2 93.5 321.1
05/05 14:00 11 75 7.51 6.7 6 15 1013.1 0 17.4 24.9 36.8 96.3 87.4 299.5
05/05 13:50 11.6 73 7.59 6.9 7 7 1013.1 0 17.5 24.9 36.8 96.5 87.7 300.9
05/05 13:40 11.9 78 8.26 8.2 6 7 1013.1 0 19.0 25.9 39.4 103.3 96.3 330.7
05/05 13:30 11.3 79 8.06 7.8 6 11 1013.1 0 18.6 25.7 38.8 101.9 94.3 323.9
05/05 13:20 10.2 82 7.81 7.2 6 7 1013.1 0 18.1 25.6 38.4 100.6 92.3 316.6
05/05 13:10 10.2 85 8.09 7.8 4 6 1013.1 0 18.7 26.1 39.5 103.7 96.1 329.9
05/05 13:00 10.2 87 8.28 8.1 6 9 1013.1 0 19.1 26.4 40.3 105.8 98.7 339.0
05/05 12:50 10 88 8.27 8.2 6 6 1013.1 0 19.1 26.5 40.4 105.9 98.8 339.4
05/05 12:40 9.7 90 8.3 8.1 4 6 1013.1 0 19.1 26.6 40.6 106.7 99.6 342.1
05/05 12:30 9.8 91 8.45 8.4 6 11 1013.1 0 19.5 26.8 41.2 108.2 101.5 348.9
05/05 12:20 10.1 90 8.51 8.5 6 11 1013.1 0 19.6 26.8 41.3 108.5 102.0 350.5
05/05 12:10 10.1 88 8.32 8.2 6 9 1013.1 0 19.2 26.5 40.5 106.4 99.4 341.3
05/05 12:00 10 90 8.46 8.4 4 7 1013.1 0 19.5 26.8 41.2 108.1 101.4 348.5
05/05 11:50 10.2 91 8.66 8.8 2 4 1013.1 0 19.9 27.1 41.9 110.0 103.9 357.3
05/05 11:40 9.9 90 8.41 8.3 6 7 1013.1 0 19.4 26.7 41.0 107.6 100.9 346.6
05/05 11:30 10.1 93 8.8 9 4 7 1013.1 0 20.2 27.3 42.5 111.8 106.0 364.6
05/05 11:20 9.7 91 8.39 8.3 6 7 1013.1 0 19.3 26.8 41.0 107.7 100.8 346.5
05/05 11:10 9.8 91 8.45 8.4 6 11 1013.1 0 19.5 26.8 41.2 108.2 101.5 348.9
05/05 11:00 9.9 91 8.5 8.5 6 9 1013.1 0 19.6 26.9 41.4 108.6 102.1 350.9
05/05 10:50 9.9 91 8.5 8.5 7 11 1013.1 0 19.6 26.9 41.4 108.6 102.1 350.9
05/05 10:40 10.1 92 8.7 8.8 4 6 1013.1 0 20.0 27.2 42.1 110.6 104.6 359.8
05/05 10:30 9.7 91 8.39 8.3 6 9 1013.1 0 19.3 26.8 41.0 107.7 100.8 346.5
05/05 10:20 9.7 91 8.39 8.3 6 9 1013.1 0 19.3 26.8 41.0 107.7 100.8 346.5
05/05 10:10 9.8 93 8.63 8.7 7 9 1013.1 0 19.9 27.1 42.0 110.3 104.0 357.7
05/05 10:00 9.4 94 8.5 8.5 6 11 1013.1 0 19.6 27.0 41.6 109.3 102.8 353.2
05/05 09:50 9.7 97 8.94 9.2 6 7 1013.1 0 20.5 27.7 43.4 113.9 108.6 373.5
05/05 09:40 9.4 98 8.87 9.1 7 11 1013.1 0 20.4 27.7 43.2 113.6 108.0 371.4

Last Refresh: 06-May-2026 02:26:47

Bureau of Meteorology